Time;durP1;ratioP1;P1;durP2;ratioP2;P2;SDS_P1;SDS_P2;PMS_P1;PMS_P2;Temp;Humidity;BMP_temperature;BMP_pressure;BME280_temperature;BME280_humidity;BME280_pressure;Samples;Min_cycle;Max_cycle;Signal;HPM_P1;HPM_P2
2023/09/13 05:35:44;;;;;;;;;19.00;19.00;;;;;;;;6241460;22;45363;-74
2023/09/13 05:38:10;;;;;;;;;21.33;17.00;;;;;;;;6215404;22;45256;-75
2023/09/13 05:40:35;;;;;;;;;21.00;18.33;;;;;;;;6246699;22;45308;-75
2023/09/13 05:43:00;;;;;;;;;22.67;17.67;;;;;;;;6246113;22;45493;-75
2023/09/13 05:45:25;;;;;;;;;24.33;20.33;;;;;;;;6246518;22;46539;-74
2023/09/13 05:47:50;;;;;;;;;22.67;22.00;;;;;;;;6246094;22;45276;-75
2023/09/13 05:50:16;;;;;;;;;22.67;19.00;;;;;;;;6246252;22;45321;-74
2023/09/13 05:52:41;;;;;;;;;18.33;17.33;;;;;;;;6219104;22;46197;-74
2023/09/13 05:55:07;;;;;;;;;22.33;22.00;;;;;;;;6217912;22;47516;-74
2023/09/13 05:57:32;;;;;;;;;22.00;19.00;;;;;;;;6246700;22;45502;-75
2023/09/13 05:59:57;;;;;;;;;22.00;19.33;;;;;;;;6247438;22;45315;-78
2023/09/13 06:02:23;;;;;;;;;23.00;19.00;;;;;;;;6248821;22;45140;-78
2023/09/13 06:04:48;;;;;;;;;20.00;20.00;;;;;;;;6246904;22;46197;-77
2023/09/13 06:07:13;;;;;;;;;20.00;19.67;;;;;;;;6246245;22;45586;-77
2023/09/13 06:09:38;;;;;;;;;24.00;21.33;;;;;;;;6246829;22;45354;-77
2023/09/13 06:12:04;;;;;;;;;22.33;21.00;;;;;;;;6246487;22;45219;-80
2023/09/13 06:14:30;;;;;;;;;23.00;20.33;;;;;;;;6218603;22;47479;-77
2023/09/13 06:16:55;;;;;;;;;21.00;20.00;;;;;;;;6218218;22;45264;-77
2023/09/13 06:19:21;;;;;;;;;21.00;21.00;;;;;;;;6244075;22;45158;-77
2023/09/13 06:21:47;;;;;;;;;17.33;17.33;;;;;;;;6246293;22;44737;-77
2023/09/13 06:24:12;;;;;;;;;24.67;21.00;;;;;;;;6217571;22;47585;-77
2023/09/13 06:26:37;;;;;;;;;22.67;19.33;;;;;;;;6246271;22;45126;-79
2023/09/13 06:29:02;;;;;;;;;20.00;19.00;;;;;;;;6246313;22;45373;-78
2023/09/13 06:31:27;;;;;;;;;20.67;20.00;;;;;;;;6246487;22;45283;-78
2023/09/13 06:33:53;;;;;;;;;20.00;16.50;;;;;;;;6216366;22;46783;-77
2023/09/13 06:36:18;;;;;;;;;21.00;18.00;;;;;;;;6246678;22;45354;-78
2023/09/13 06:38:43;;;;;;;;;23.67;19.33;;;;;;;;6245737;22;45246;-79
2023/09/13 06:41:09;;;;;;;;;20.67;18.33;;;;;;;;6247775;22;45233;-83
2023/09/13 06:43:36;;;;;;;;;23.33;18.67;;;;;;;;6247582;22;45321;-76
2023/09/13 06:46:02;;;;;;;;;18.67;17.00;;;;;;;;6247809;22;45303;-76
2023/09/13 06:48:27;;;;;;;;;22.67;21.00;;;;;;;;6246957;22;45334;-76
2023/09/13 06:50:52;;;;;;;;;24.00;20.33;;;;;;;;6248100;22;45202;-75
2023/09/13 06:53:17;;;;;;;;;20.00;18.00;;;;;;;;6219837;22;46154;-76
2023/09/13 06:55:43;;;;;;;;;20.33;17.67;;;;;;;;6247726;22;45220;-78
2023/09/13 06:58:08;;;;;;;;;18.67;17.67;;;;;;;;6248348;22;45388;-75
2023/09/13 07:00:33;;;;;;;;;17.67;16.33;;;;;;;;6247853;22;45169;-75
2023/09/13 07:02:59;;;;;;;;;21.33;18.33;;;;;;;;6247168;22;45222;-77
2023/09/13 07:05:24;;;;;;;;;20.67;20.00;;;;;;;;6246905;22;45223;-76
2023/09/13 07:07:49;;;;;;;;;19.67;19.67;;;;;;;;6247811;22;45153;-75
2023/09/13 07:10:15;;;;;;;;;19.00;19.00;;;;;;;;6247231;22;45499;-74
2023/09/13 07:12:40;;;;;;;;;20.67;18.33;;;;;;;;6247581;22;46094;-75
2023/09/13 07:15:07;;;;;;;;;18.33;17.67;;;;;;;;6246578;22;45200;-76
2023/09/13 07:17:32;;;;;;;;;18.67;14.33;;;;;;;;6248218;22;45219;-75
2023/09/13 07:19:58;;;;;;;;;16.67;15.67;;;;;;;;6247001;22;45389;-77
2023/09/13 07:22:23;;;;;;;;;18.33;16.67;;;;;;;;6219953;22;48072;-76
2023/09/13 07:24:48;;;;;;;;;21.00;17.33;;;;;;;;6247170;22;45308;-75
2023/09/13 07:27:13;;;;;;;;;20.00;18.67;;;;;;;;6220030;22;45194;-74
2023/09/13 07:29:38;;;;;;;;;19.33;18.33;;;;;;;;6247310;22;45264;-74
2023/09/13 07:32:04;;;;;;;;;16.33;16.33;;;;;;;;6247831;22;46196;-72
2023/09/13 07:34:29;;;;;;;;;20.67;18.00;;;;;;;;6246198;22;45455;-75
2023/09/13 07:36:54;;;;;;;;;23.00;18.67;;;;;;;;6220415;22;45268;-75
2023/09/13 07:39:19;;;;;;;;;14.33;14.33;;;;;;;;6246921;22;45361;-74
2023/09/13 07:41:44;;;;;;;;;20.00;17.33;;;;;;;;6219070;22;47815;-74
2023/09/13 07:44:10;;;;;;;;;14.00;14.00;;;;;;;;6247136;22;45288;-74
2023/09/13 07:46:35;;;;;;;;;15.00;14.00;;;;;;;;6246904;22;45236;-74
2023/09/13 07:49:00;;;;;;;;;16.33;14.00;;;;;;;;6246588;22;45245;-74
2023/09/13 07:51:25;;;;;;;;;16.67;14.33;;;;;;;;6247432;22;45219;-74
2023/09/13 07:53:53;;;;;;;;;17.00;15.50;;;;;;;;6219722;22;45655;-74
2023/09/13 07:56:19;;;;;;;;;15.00;14.00;;;;;;;;6248009;22;45168;-74
2023/09/13 07:58:44;;;;;;;;;18.33;15.67;;;;;;;;6247274;22;45134;-78
2023/09/13 08:01:09;;;;;;;;;14.00;13.00;;;;;;;;6247547;22;45406;-74
2023/09/13 08:03:34;;;;;;;;;15.33;14.33;;;;;;;;6245252;22;45142;-77
2023/09/13 08:06:03;;;;;;;;;33.67;29.00;;;;;;;;6248676;22;45632;-82
2023/09/13 08:08:30;;;;;;;;;19.67;18.67;;;;;;;;6246104;22;45463;-81
2023/09/13 08:10:56;;;;;;;;;17.00;17.00;;;;;;;;6247577;22;45270;-79
2023/09/13 08:13:21;;;;;;;;;16.00;14.33;;;;;;;;6247152;22;45244;-76
2023/09/13 08:15:47;;;;;;;;;10.00;10.00;;;;;;;;6247548;22;45387;-73
2023/09/13 08:18:12;;;;;;;;;12.00;10.33;;;;;;;;6246816;22;45302;-75
2023/09/13 08:20:38;;;;;;;;;16.33;14.00;;;;;;;;6247145;22;46442;-75
2023/09/13 08:23:03;;;;;;;;;16.33;14.00;;;;;;;;6246907;22;45166;-76
2023/09/13 08:25:28;;;;;;;;;17.67;15.00;;;;;;;;6247472;22;45181;-75
2023/09/13 08:27:53;;;;;;;;;15.00;15.00;;;;;;;;6219619;22;46172;-75
2023/09/13 08:30:18;;;;;;;;;19.00;16.67;;;;;;;;6218805;22;45259;-75
2023/09/13 08:32:44;;;;;;;;;13.67;12.67;;;;;;;;6247683;22;45263;-75
2023/09/13 08:35:09;;;;;;;;;13.67;13.67;;;;;;;;6246160;22;45245;-75
2023/09/13 08:37:34;;;;;;;;;16.00;14.00;;;;;;;;6247604;22;44757;-75
2023/09/13 08:40:00;;;;;;;;;19.67;16.67;;;;;;;;6247015;22;45298;-74
2023/09/13 08:42:28;;;;;;;;;16.00;14.33;;;;;;;;6219643;22;45273;-74
2023/09/13 08:44:54;;;;;;;;;13.00;13.00;;;;;;;;6245121;22;44662;-75
2023/09/13 08:47:20;;;;;;;;;15.00;14.67;;;;;;;;6218546;22;45236;-75
2023/09/13 08:49:45;;;;;;;;;15.67;15.00;;;;;;;;6246629;22;45311;-75
2023/09/13 08:52:11;;;;;;;;;15.67;14.00;;;;;;;;6245531;22;45322;-75
2023/09/13 08:54:37;;;;;;;;;16.00;16.00;;;;;;;;6247104;22;45342;-75
2023/09/13 08:57:02;;;;;;;;;12.33;12.33;;;;;;;;6247005;22;45310;-76
2023/09/13 08:59:28;;;;;;;;;17.00;17.00;;;;;;;;6246697;22;45300;-76
2023/09/13 09:01:53;;;;;;;;;16.67;14.33;;;;;;;;6219357;22;45866;-76
2023/09/13 09:04:19;;;;;;;;;18.00;15.67;;;;;;;;6246693;22;45189;-75
2023/09/13 09:06:45;;;;;;;;;18.33;15.00;;;;;;;;6247530;22;45194;-75
2023/09/13 09:09:19;;;;;;;;;12.33;12.33;;;;;;;;6246679;22;45130;-75
2023/09/13 09:11:47;;;;;;;;;14.33;13.33;;;;;;;;6247184;22;45424;-75
2023/09/13 09:14:14;;;;;;;;;12.67;12.33;;;;;;;;6246921;22;45216;-76
2023/09/13 09:16:41;;;;;;;;;15.00;14.67;;;;;;;;6246688;22;45208;-76
2023/09/13 09:19:06;;;;;;;;;15.00;12.00;;;;;;;;6246028;22;45304;-75
2023/09/13 09:21:32;;;;;;;;;12.00;12.00;;;;;;;;6247181;22;45252;-76
2023/09/13 09:23:58;;;;;;;;;11.67;11.67;;;;;;;;6246563;22;45311;-75
2023/09/13 09:26:23;;;;;;;;;10.67;10.67;;;;;;;;6247078;22;45172;-75
2023/09/13 09:28:48;;;;;;;;;11.00;9.00;;;;;;;;6246822;22;46327;-76
2023/09/13 09:31:16;;;;;;;;;11.67;8.67;;;;;;;;6218630;22;45281;-76
2023/09/13 09:33:42;;;;;;;;;8.00;8.00;;;;;;;;6246389;22;45197;-74
2023/09/13 09:36:08;;;;;;;;;7.67;7.67;;;;;;;;6244625;22;45137;-76
2023/09/13 09:38:34;;;;;;;;;8.67;7.67;;;;;;;;6246589;22;45340;-75
2023/09/13 09:41:01;;;;;;;;;9.33;8.00;;;;;;;;6246767;22;45382;-75
2023/09/13 09:43:27;;;;;;;;;8.67;8.67;;;;;;;;6246479;22;45280;-75
2023/09/13 09:45:53;;;;;;;;;12.33;9.67;;;;;;;;6246729;22;45386;-76
2023/09/13 09:48:18;;;;;;;;;10.67;8.67;;;;;;;;6246493;22;45753;-77
2023/09/13 09:50:48;;;;;;;;;11.00;9.00;;;;;;;;6246557;22;45245;-75
2023/09/13 09:53:14;;;;;;;;;8.00;8.00;;;;;;;;6246690;22;45301;-75
2023/09/13 09:55:39;;;;;;;;;11.00;9.00;;;;;;;;6246779;22;45225;-75
2023/09/13 09:58:05;;;;;;;;;7.67;7.67;;;;;;;;6246654;22;45602;-74
2023/09/13 10:00:30;;;;;;;;;10.33;8.67;;;;;;;;6246803;22;45200;-75
2023/09/13 10:02:55;;;;;;;;;9.00;8.33;;;;;;;;6247108;22;45324;-75
2023/09/13 10:05:21;;;;;;;;;8.50;7.50;;;;;;;;6246152;22;45478;-75
2023/09/13 10:07:49;;;;;;;;;7.25;7.25;;;;;;;;6246617;22;46060;-74
2023/09/13 10:10:35;;;;;;;;;7.25;7.25;;;;;;;;6245960;22;45228;-74
2023/09/13 10:13:00;;;;;;;;;7.50;7.25;;;;;;;;6245858;22;45281;-75
2023/09/13 10:15:26;;;;;;;;;8.75;8.75;;;;;;;;6218962;22;45366;-75
2023/09/13 10:17:53;;;;;;;;;6.50;6.25;;;;;;;;6245451;22;45222;-75
2023/09/13 10:20:20;;;;;;;;;8.00;8.00;;;;;;;;6217204;22;45469;-73
2023/09/13 10:22:46;;;;;;;;;6.25;5.75;;;;;;;;6219353;22;45182;-73
2023/09/13 10:25:14;;;;;;;;;8.25;8.25;;;;;;;;6246232;22;45233;-74
2023/09/13 10:27:41;;;;;;;;;5.25;5.25;;;;;;;;6246355;22;45186;-74
2023/09/13 10:30:07;;;;;;;;;8.00;8.00;;;;;;;;6218223;22;45249;-74
2023/09/13 10:32:39;;;;;;;;;6.00;6.00;;;;;;;;6247072;22;45225;-75
2023/09/13 10:35:05;;;;;;;;;6.50;6.00;;;;;;;;6245111;22;45228;-76
2023/09/13 10:37:50;;;;;;;;;5.00;5.00;;;;;;;;6246522;22;45221;-75
2023/09/13 10:40:22;;;;;;;;;6.00;5.00;;;;;;;;6246230;22;45256;-75
2023/09/13 10:42:48;;;;;;;;;6.00;6.00;;;;;;;;6246840;22;45236;-74
2023/09/13 10:45:18;;;;;;;;;6.50;6.25;;;;;;;;6246166;22;45506;-75
2023/09/13 10:47:49;;;;;;;;;8.00;6.75;;;;;;;;6217451;22;47542;-74
2023/09/13 10:50:15;;;;;;;;;8.00;6.50;;;;;;;;6217427;22;44634;-74
2023/09/13 10:52:41;;;;;;;;;8.00;8.00;;;;;;;;6219070;22;45280;-75
2023/09/13 10:55:06;;;;;;;;;8.75;7.50;;;;;;;;6246229;22;45486;-72
2023/09/13 10:57:32;;;;;;;;;8.00;7.75;;;;;;;;6246288;22;46052;-74
2023/09/13 10:59:58;;;;;;;;;6.00;6.00;;;;;;;;6245924;22;45300;-74
2023/09/13 11:02:24;;;;;;;;;7.75;6.50;;;;;;;;6247505;22;45348;-73
2023/09/13 11:04:49;;;;;;;;;6.75;4.75;;;;;;;;6248949;22;45233;-74
2023/09/13 11:07:15;;;;;;;;;8.25;6.00;;;;;;;;6218892;22;45460;-74
2023/09/13 11:09:40;;;;;;;;;4.50;4.50;;;;;;;;6246078;22;45196;-75
2023/09/13 11:12:05;;;;;;;;;5.75;4.00;;;;;;;;6244248;22;45165;-75
2023/09/13 11:14:31;;;;;;;;;4.00;4.00;;;;;;;;6245980;22;45285;-75
2023/09/13 11:17:08;;;;;;;;;5.00;5.00;;;;;;;;6246107;22;46005;-75
2023/09/13 11:19:33;;;;;;;;;8.50;7.25;;;;;;;;6216704;22;45254;-75
2023/09/13 11:22:02;;;;;;;;;7.75;6.25;;;;;;;;6217818;22;45258;-75
2023/09/13 11:24:38;;;;;;;;;5.00;5.00;;;;;;;;6247052;22;45219;-75
2023/09/13 11:27:14;;;;;;;;;6.50;6.25;;;;;;;;6245579;22;45379;-75
2023/09/13 11:29:44;;;;;;;;;6.00;5.00;;;;;;;;6219495;22;45277;-75
2023/09/13 11:32:16;;;;;;;;;6.25;5.25;;;;;;;;6220323;22;44684;-75
2023/09/13 11:34:41;;;;;;;;;6.25;5.75;;;;;;;;6217964;22;45338;-75
2023/09/13 11:37:10;;;;;;;;;6.50;5.25;;;;;;;;6247268;22;46025;-75
2023/09/13 11:39:35;;;;;;;;;5.40;5.20;;;;;;;;6247279;22;45221;-75
2023/09/13 11:42:03;;;;;;;;;4.00;4.00;;;;;;;;6247771;22;45422;-75
2023/09/13 11:44:28;;;;;;;;;6.00;5.00;;;;;;;;6247246;22;45301;-75
2023/09/13 11:46:54;;;;;;;;;6.50;4.25;;;;;;;;6247483;22;45317;-75
2023/09/13 11:49:23;;;;;;;;;3.75;3.75;;;;;;;;6246929;22;45221;-75
2023/09/13 11:51:55;;;;;;;;;7.50;5.00;;;;;;;;6219164;22;45294;-76
2023/09/13 11:54:21;;;;;;;;;4.75;4.00;;;;;;;;6246864;22;45283;-76
2023/09/13 11:56:48;;;;;;;;;2.50;2.00;;;;;;;;6247700;22;45991;-75
2023/09/13 11:59:13;;;;;;;;;3.40;3.40;;;;;;;;6247038;22;45265;-75
2023/09/13 12:01:42;;;;;;;;;4.00;3.00;;;;;;;;6247908;22;45231;-75
2023/09/13 12:04:08;;;;;;;;;5.00;4.00;;;;;;;;6245261;22;46080;-76
2023/09/13 12:06:47;;;;;;;;;3.75;3.75;;;;;;;;6247564;22;45328;-75
2023/09/13 12:09:15;;;;;;;;;6.00;4.60;;;;;;;;6246939;22;45313;-75
2023/09/13 12:11:41;;;;;;;;;3.00;3.00;;;;;;;;6247965;22;45213;-75
2023/09/13 12:14:12;;;;;;;;;2.25;2.25;;;;;;;;6246894;22;45363;-75
2023/09/13 12:16:40;;;;;;;;;4.50;3.25;;;;;;;;6247410;22;46127;-75
2023/09/13 12:19:06;;;;;;;;;4.60;3.40;;;;;;;;6246585;22;45242;-76
2023/09/13 12:21:33;;;;;;;;;3.00;3.00;;;;;;;;6248050;22;45205;-76
2023/09/13 12:23:59;;;;;;;;;3.25;2.00;;;;;;;;6247011;22;45687;-75
2023/09/13 12:26:24;;;;;;;;;2.75;2.75;;;;;;;;6219478;22;45327;-75
2023/09/13 12:28:49;;;;;;;;;4.75;3.50;;;;;;;;6247099;22;45303;-75
2023/09/13 12:31:15;;;;;;;;;5.00;3.25;;;;;;;;6247715;22;45356;-75
2023/09/13 12:33:41;;;;;;;;;5.00;4.00;;;;;;;;6246450;22;45996;-75
2023/09/13 12:36:07;;;;;;;;;5.00;3.00;;;;;;;;6247082;22;45228;-76
2023/09/13 12:38:43;;;;;;;;;6.00;4.00;;;;;;;;6247128;22;45252;-75
2023/09/13 12:41:13;;;;;;;;;4.25;3.25;;;;;;;;6247351;22;45415;-77
2023/09/13 12:43:42;;;;;;;;;4.00;4.00;;;;;;;;6246789;22;45423;-75
2023/09/13 12:46:09;;;;;;;;;2.00;2.00;;;;;;;;6245027;22;46263;-74
2023/09/13 12:48:36;;;;;;;;;1.80;1.80;;;;;;;;6219298;22;45627;-75
2023/09/13 12:51:01;;;;;;;;;2.50;2.50;;;;;;;;6220256;22;44702;-75
2023/09/13 12:53:27;;;;;;;;;4.75;3.25;;;;;;;;6247094;22;45138;-75
2023/09/13 12:55:52;;;;;;;;;6.00;3.00;;;;;;;;6247349;22;45122;-75
2023/09/13 12:58:18;;;;;;;;;3.50;3.50;;;;;;;;6247322;22;45268;-75
2023/09/13 13:00:52;;;;;;;;;1.75;1.75;;;;;;;;6247288;22;45378;-75
2023/09/13 13:03:18;;;;;;;;;3.40;2.80;;;;;;;;6218679;22;46177;-75
2023/09/13 13:05:44;;;;;;;;;5.75;3.50;;;;;;;;6247058;22;45225;-74
2023/09/13 13:08:10;;;;;;;;;3.80;3.80;;;;;;;;6246601;22;45364;-74
2023/09/13 13:10:54;;;;;;;;;3.25;3.25;;;;;;;;6247058;22;45265;-75
2023/09/13 13:13:20;;;;;;;;;3.25;3.25;;;;;;;;6247134;22;45323;-75
2023/09/13 13:15:45;;;;;;;;;3.00;3.00;;;;;;;;6219481;22;48037;-75
2023/09/13 13:18:11;;;;;;;;;2.50;2.50;;;;;;;;6246708;22;45280;-75
2023/09/13 13:20:36;;;;;;;;;3.20;2.20;;;;;;;;6247269;22;45220;-75
2023/09/13 13:23:04;;;;;;;;;3.00;3.00;;;;;;;;6219100;22;45941;-75
2023/09/13 13:25:30;;;;;;;;;5.00;3.00;;;;;;;;6246316;22;45269;-75
2023/09/13 13:27:55;;;;;;;;;5.25;4.25;;;;;;;;6247159;22;45094;-75
2023/09/13 13:30:21;;;;;;;;;1.50;1.00;;;;;;;;6247176;22;45212;-76
2023/09/13 13:32:47;;;;;;;;;2.60;2.60;;;;;;;;6247073;22;45207;-74
2023/09/13 13:35:12;;;;;;;;;3.00;3.00;;;;;;;;6245840;22;46680;-73
2023/09/13 13:37:43;;;;;;;;;3.50;2.50;;;;;;;;6247280;22;45095;-74
2023/09/13 13:40:08;;;;;;;;;4.80;3.00;;;;;;;;6219512;22;45273;-74
2023/09/13 13:42:33;;;;;;;;;3.25;3.25;;;;;;;;6246958;22;45272;-74
2023/09/13 13:44:58;;;;;;;;;4.00;4.00;;;;;;;;6217597;22;47576;-74
2023/09/13 13:47:24;;;;;;;;;4.00;3.00;;;;;;;;6246434;22;45337;-73
2023/09/13 13:49:49;;;;;;;;;3.00;3.00;;;;;;;;6246599;22;45177;-75
2023/09/13 13:52:14;;;;;;;;;3.50;3.50;;;;;;;;6219218;22;45375;-75
2023/09/13 13:54:40;;;;;;;;;3.25;3.25;;;;;;;;6218071;22;45279;-75
2023/09/13 13:57:05;;;;;;;;;3.40;3.40;;;;;;;;6246948;22;45201;-74
2023/09/13 13:59:31;;;;;;;;;5.00;3.00;;;;;;;;6219291;22;45372;-74
2023/09/13 14:01:56;;;;;;;;;5.00;3.00;;;;;;;;6246955;22;45575;-75
2023/09/13 14:04:21;;;;;;;;;3.00;3.00;;;;;;;;6245335;22;45292;-74
2023/09/13 14:06:47;;;;;;;;;4.75;2.75;;;;;;;;6246944;22;45298;-73
2023/09/13 14:09:14;;;;;;;;;3.00;3.00;;;;;;;;6218844;22;45379;-76
2023/09/13 14:11:40;;;;;;;;;5.60;3.20;;;;;;;;6247240;22;45278;-77
2023/09/13 14:14:06;;;;;;;;;5.00;4.60;;;;;;;;6246006;22;46291;-76
2023/09/13 14:16:31;;;;;;;;;3.00;3.00;;;;;;;;6247102;22;45267;-76
2023/09/13 14:18:56;;;;;;;;;3.75;3.00;;;;;;;;6217840;22;45273;-76
2023/09/13 14:21:21;;;;;;;;;3.00;3.00;;;;;;;;6246621;22;45290;-76
2023/09/13 14:23:46;;;;;;;;;3.50;2.25;;;;;;;;6218006;22;46666;-76
2023/09/13 14:26:11;;;;;;;;;3.00;3.00;;;;;;;;6246898;22;45255;-76
2023/09/13 14:28:37;;;;;;;;;2.75;2.75;;;;;;;;6246837;22;45354;-77
2023/09/13 14:31:03;;;;;;;;;2.25;2.00;;;;;;;;6244970;22;45380;-76
2023/09/13 14:33:34;;;;;;;;;3.20;2.20;;;;;;;;6246070;22;46472;-76
2023/09/13 14:35:59;;;;;;;;;2.40;2.40;;;;;;;;6244815;22;45331;-77
2023/09/13 14:38:25;;;;;;;;;4.25;3.00;;;;;;;;6246630;22;45272;-77
2023/09/13 14:40:50;;;;;;;;;3.00;3.00;;;;;;;;6218469;22;45297;-77
2023/09/13 14:43:16;;;;;;;;;2.75;2.25;;;;;;;;6246255;22;46338;-76
2023/09/13 14:45:41;;;;;;;;;3.00;3.00;;;;;;;;6246491;22;45216;-77
2023/09/13 14:48:06;;;;;;;;;5.00;4.00;;;;;;;;6246314;22;45208;-77
2023/09/13 14:50:31;;;;;;;;;3.50;3.00;;;;;;;;6246138;22;45272;-77
2023/09/13 14:52:56;;;;;;;;;3.00;3.00;;;;;;;;6218119;22;46574;-76
2023/09/13 14:55:22;;;;;;;;;1.75;1.75;;;;;;;;6245854;22;45299;-78
2023/09/13 14:57:47;;;;;;;;;2.50;2.50;;;;;;;;6247751;22;45298;-76
2023/09/13 15:00:14;;;;;;;;;2.00;2.00;;;;;;;;6247509;22;45232;-77
2023/09/13 15:02:42;;;;;;;;;4.20;3.20;;;;;;;;6220266;22;48193;-81
2023/09/13 15:05:08;;;;;;;;;2.60;2.60;;;;;;;;6245656;22;45225;-81
2023/09/13 15:07:33;;;;;;;;;3.00;3.00;;;;;;;;6248273;22;45427;-81
2023/09/13 15:10:00;;;;;;;;;3.00;3.00;;;;;;;;6247444;22;45383;-82
2023/09/13 15:12:27;;;;;;;;;4.25;4.25;;;;;;;;6247283;22;46190;-81
2023/09/13 15:14:52;;;;;;;;;10.75;7.50;;;;;;;;6247519;22;45213;-78
2023/09/13 15:17:18;;;;;;;;;9.75;9.25;;;;;;;;6247888;22;45277;-81
2023/09/13 15:19:45;;;;;;;;;13.50;13.50;;;;;;;;6219035;22;45315;-81
2023/09/13 15:22:10;;;;;;;;;14.00;12.00;;;;;;;;6247573;22;46327;-82
2023/09/13 15:24:38;;;;;;;;;14.00;12.00;;;;;;;;6219961;22;45159;-80
2023/09/13 15:27:04;;;;;;;;;12.50;12.50;;;;;;;;6248500;22;45161;-81
2023/09/13 15:29:29;;;;;;;;;15.50;12.75;;;;;;;;6247780;22;45401;-81
2023/09/13 15:31:54;;;;;;;;;15.25;13.00;;;;;;;;6248139;22;45335;-82
2023/09/13 15:34:19;;;;;;;;;14.00;12.25;;;;;;;;6246426;22;45295;-81
2023/09/13 15:36:45;;;;;;;;;15.50;14.50;;;;;;;;6247985;22;45297;-81
2023/09/13 15:39:10;;;;;;;;;15.50;13.75;;;;;;;;6247191;22;45274;-81
2023/09/13 15:41:36;;;;;;;;;14.50;12.75;;;;;;;;6247511;22;45342;-81
2023/09/13 15:44:01;;;;;;;;;14.50;12.25;;;;;;;;6247105;22;45408;-81
2023/09/13 15:46:26;;;;;;;;;17.50;11.50;;;;;;;;6247202;22;45225;-82
2023/09/13 15:48:51;;;;;;;;;11.75;11.75;;;;;;;;6246702;22;45363;-80
2023/09/13 15:51:16;;;;;;;;;10.50;10.00;;;;;;;;6247253;22;45515;-80
2023/09/13 15:53:42;;;;;;;;;13.75;10.25;;;;;;;;6218916;22;45398;-81
2023/09/13 15:56:07;;;;;;;;;10.50;10.00;;;;;;;;6247215;22;45280;-75
2023/09/13 15:58:32;;;;;;;;;12.25;11.75;;;;;;;;6247526;22;45248;-77
2023/09/13 16:00:58;;;;;;;;;12.50;12.50;;;;;;;;6247019;22;45666;-77
2023/09/13 16:03:23;;;;;;;;;13.50;10.75;;;;;;;;6246814;22;45251;-77
2023/09/13 16:05:49;;;;;;;;;12.25;11.00;;;;;;;;6247584;22;45280;-78
2023/09/13 16:08:14;;;;;;;;;12.75;11.00;;;;;;;;6246346;22;45669;-77
2023/09/13 16:10:40;;;;;;;;;13.75;11.75;;;;;;;;6247422;22;45275;-77
2023/09/13 16:13:06;;;;;;;;;11.50;10.50;;;;;;;;6246976;22;45417;-77
2023/09/13 16:15:31;;;;;;;;;13.00;9.75;;;;;;;;6219279;22;45280;-77
2023/09/13 16:17:56;;;;;;;;;12.25;10.25;;;;;;;;6247112;22;45189;-77
2023/09/13 16:20:21;;;;;;;;;11.50;10.00;;;;;;;;6217551;22;46697;-76
2023/09/13 16:22:47;;;;;;;;;13.00;9.50;;;;;;;;6246576;22;45315;-76
2023/09/13 16:25:13;;;;;;;;;7.50;6.25;;;;;;;;6246211;22;45252;-76
2023/09/13 16:27:38;;;;;;;;;9.75;9.50;;;;;;;;6247605;22;45167;-77
2023/09/13 16:30:04;;;;;;;;;9.50;8.00;;;;;;;;6246527;22;46432;-77
2023/09/13 16:32:29;;;;;;;;;10.75;8.75;;;;;;;;6219690;22;45297;-77
2023/09/13 16:34:54;;;;;;;;;14.50;9.75;;;;;;;;6245925;22;45359;-77
2023/09/13 16:37:20;;;;;;;;;8.50;8.50;;;;;;;;6247294;22;45479;-76
2023/09/13 16:39:45;;;;;;;;;9.75;8.00;;;;;;;;6246734;22;45846;-76
2023/09/13 16:42:10;;;;;;;;;8.25;8.25;;;;;;;;6247399;22;45223;-76
2023/09/13 16:44:36;;;;;;;;;10.75;10.75;;;;;;;;6247154;22;45405;-76
2023/09/13 16:47:01;;;;;;;;;9.25;8.75;;;;;;;;6247253;22;45212;-76
2023/09/13 16:49:27;;;;;;;;;11.25;11.25;;;;;;;;6217018;22;47898;-76
2023/09/13 16:51:53;;;;;;;;;8.50;7.50;;;;;;;;6245486;22;45233;-76
2023/09/13 16:54:18;;;;;;;;;7.75;7.75;;;;;;;;6247391;22;45239;-76
2023/09/13 16:56:43;;;;;;;;;9.50;8.50;;;;;;;;6219107;22;45586;-77
2023/09/13 16:59:08;;;;;;;;;13.00;11.50;;;;;;;;6247092;22;45260;-77
2023/09/13 17:01:34;;;;;;;;;10.00;10.00;;;;;;;;6247713;22;45283;-77
2023/09/13 17:03:59;;;;;;;;;12.50;12.00;;;;;;;;6246854;22;45258;-76
2023/09/13 17:06:24;;;;;;;;;10.25;8.75;;;;;;;;6247380;22;45144;-75
2023/09/13 17:08:49;;;;;;;;;9.00;7.50;;;;;;;;6246894;22;46372;-75
2023/09/13 17:11:16;;;;;;;;;12.50;9.00;;;;;;;;6247340;22;45259;-76
2023/09/13 17:13:42;;;;;;;;;15.00;11.00;;;;;;;;6247212;22;45233;-75
2023/09/13 17:16:08;;;;;;;;;10.50;9.50;;;;;;;;6220236;22;45205;-76
2023/09/13 17:18:34;;;;;;;;;14.00;10.25;;;;;;;;6244500;22;45245;-76
2023/09/13 17:20:59;;;;;;;;;12.25;9.25;;;;;;;;6247424;22;45209;-76
2023/09/13 17:23:24;;;;;;;;;9.00;9.00;;;;;;;;6247463;22;45381;-76
2023/09/13 17:25:51;;;;;;;;;10.75;9.50;;;;;;;;6247376;22;45346;-76
2023/09/13 17:28:20;;;;;;;;;8.00;6.50;;;;;;;;6246948;22;45430;-78
2023/09/13 17:30:46;;;;;;;;;12.00;10.50;;;;;;;;6245553;22;45276;-76
2023/09/13 17:33:11;;;;;;;;;14.00;13.50;;;;;;;;6246107;22;45145;-77
2023/09/13 17:35:36;;;;;;;;;12.50;11.50;;;;;;;;6246963;22;45429;-79
2023/09/13 17:38:03;;;;;;;;;7.50;6.75;;;;;;;;6247346;22;45163;-77
2023/09/13 17:40:29;;;;;;;;;11.50;10.25;;;;;;;;6246857;22;45213;-75
2023/09/13 17:42:54;;;;;;;;;8.75;8.75;;;;;;;;6247201;22;45115;-78
2023/09/13 17:45:19;;;;;;;;;8.25;8.25;;;;;;;;6217718;22;45487;-76
2023/09/13 17:47:45;;;;;;;;;8.75;8.75;;;;;;;;6246914;22;45467;-76
2023/09/13 17:50:10;;;;;;;;;9.50;5.75;;;;;;;;6246474;22;45293;-75
2023/09/13 17:52:35;;;;;;;;;10.25;9.00;;;;;;;;6247667;22;45291;-75
2023/09/13 17:55:01;;;;;;;;;9.75;9.00;;;;;;;;6246630;22;45189;-76
2023/09/13 17:57:26;;;;;;;;;9.33;9.33;;;;;;;;6246767;22;45051;-76
2023/09/13 17:59:51;;;;;;;;;10.00;10.00;;;;;;;;6246156;22;45332;-74
2023/09/13 18:02:16;;;;;;;;;8.25;8.25;;;;;;;;6247456;22;45229;-76
2023/09/13 18:04:42;;;;;;;;;11.00;8.67;;;;;;;;6246243;22;45199;-76
2023/09/13 18:07:07;;;;;;;;;11.33;11.00;;;;;;;;6246965;22;45205;-76
2023/09/13 18:09:32;;;;;;;;;11.00;11.00;;;;;;;;6246705;22;45244;-76
2023/09/13 18:11:57;;;;;;;;;10.33;9.67;;;;;;;;6246563;22;45406;-76
2023/09/13 18:14:23;;;;;;;;;13.33;11.33;;;;;;;;6246612;22;45703;-76
2023/09/13 18:16:48;;;;;;;;;12.67;10.33;;;;;;;;6247165;22;46125;-76
2023/09/13 18:19:13;;;;;;;;;16.33;14.00;;;;;;;;6246304;22;45280;-77
2023/09/13 18:21:38;;;;;;;;;9.00;7.33;;;;;;;;6244835;22;45277;-76
2023/09/13 18:24:05;;;;;;;;;10.33;9.67;;;;;;;;6246282;22;45575;-76
2023/09/13 18:26:31;;;;;;;;;15.33;12.00;;;;;;;;6219225;22;46885;-76
2023/09/13 18:28:56;;;;;;;;;14.67;12.33;;;;;;;;6246581;22;45225;-76
2023/09/13 18:31:21;;;;;;;;;16.33;13.00;;;;;;;;6246841;22;45210;-76
2023/09/13 18:33:47;;;;;;;;;11.00;11.00;;;;;;;;6247163;22;45170;-77
2023/09/13 18:36:12;;;;;;;;;13.67;10.67;;;;;;;;6219168;22;45681;-77
2023/09/13 18:38:37;;;;;;;;;12.50;10.75;;;;;;;;6248076;22;45136;-77
2023/09/13 18:41:03;;;;;;;;;10.25;10.00;;;;;;;;6247895;22;45289;-76
2023/09/13 18:43:28;;;;;;;;;14.33;13.00;;;;;;;;6220204;22;45095;-77
2023/09/13 18:45:57;;;;;;;;;11.67;11.67;;;;;;;;6247911;22;45217;-77
2023/09/13 18:48:23;;;;;;;;;12.33;11.00;;;;;;;;6247623;22;45252;-78
2023/09/13 18:50:55;;;;;;;;;12.67;11.67;;;;;;;;6247918;22;45213;-77
2023/09/13 18:53:21;;;;;;;;;11.00;11.00;;;;;;;;6219965;22;46959;-77
2023/09/13 18:55:46;;;;;;;;;12.67;12.00;;;;;;;;6247691;22;46214;-77
2023/09/13 18:58:11;;;;;;;;;15.00;11.00;;;;;;;;6247434;22;45218;-74
2023/09/13 19:00:36;;;;;;;;;12.33;12.00;;;;;;;;6247893;22;45577;-74
2023/09/13 19:03:01;;;;;;;;;14.00;13.00;;;;;;;;6247418;22;45291;-76
2023/09/13 19:05:27;;;;;;;;;14.00;12.00;;;;;;;;6246683;22;46294;-73
2023/09/13 19:07:52;;;;;;;;;17.00;15.00;;;;;;;;6246299;22;45250;-74
2023/09/13 19:10:17;;;;;;;;;16.67;16.67;;;;;;;;6247758;22;45501;-74
2023/09/13 19:12:42;;;;;;;;;17.67;15.33;;;;;;;;6247876;22;45432;-74
2023/09/13 19:15:08;;;;;;;;;15.33;15.33;;;;;;;;6247409;22;46021;-75
2023/09/13 19:17:33;;;;;;;;;16.33;15.67;;;;;;;;6248008;22;45275;-75
2023/09/13 19:19:58;;;;;;;;;14.00;14.00;;;;;;;;6247386;22;45209;-77
2023/09/13 19:22:23;;;;;;;;;15.00;14.00;;;;;;;;6247729;22;45237;-77
2023/09/13 19:24:48;;;;;;;;;15.67;15.33;;;;;;;;6247376;22;45864;-75
2023/09/13 19:27:13;;;;;;;;;12.33;12.33;;;;;;;;6247930;22;45267;-75
2023/09/13 19:29:39;;;;;;;;;12.00;12.00;;;;;;;;6247820;22;45524;-75
2023/09/13 19:32:04;;;;;;;;;14.00;13.00;;;;;;;;6247368;22;45217;-75
2023/09/13 19:34:29;;;;;;;;;14.00;12.33;;;;;;;;6246342;22;46321;-74
2023/09/13 19:36:54;;;;;;;;;15.00;15.00;;;;;;;;6247346;22;45260;-76
2023/09/13 19:39:20;;;;;;;;;14.00;13.00;;;;;;;;6247742;22;45299;-76
2023/09/13 19:41:46;;;;;;;;;16.67;16.00;;;;;;;;6247650;22;45228;-75
2023/09/13 19:44:11;;;;;;;;;15.00;13.00;;;;;;;;6219208;22;47227;-75
2023/09/13 19:46:36;;;;;;;;;11.33;11.33;;;;;;;;6247340;22;45085;-76
2023/09/13 19:49:01;;;;;;;;;14.00;14.00;;;;;;;;6247319;22;45187;-76
2023/09/13 19:51:28;;;;;;;;;15.67;15.67;;;;;;;;6219002;22;46145;-75
2023/09/13 19:53:53;;;;;;;;;17.00;14.00;;;;;;;;6247365;22;45211;-75
2023/09/13 19:56:19;;;;;;;;;18.33;15.67;;;;;;;;6245532;22;45186;-76